Time;durP1;ratioP1;P1;durP2;ratioP2;P2;SDS_P1;SDS_P2;PMS_P1;PMS_P2;Temp;Humidity;BMP_temperature;BMP_pressure;BME280_temperature;BME280_humidity;BME280_pressure;Samples;Min_cycle;Max_cycle;Signal;HPM_P1;HPM_P2
2022/09/12 00:00:51;;;;;;;0.00;0.00;;;18.60;57.20;20.70;94000.00;;;;10513080;27;45179;-58
2022/09/12 00:06:16;;;;;;;0.40;0.20;;;18.50;57.20;20.70;93994.00;;;;10515511;27;45215;-58
2022/09/12 00:11:40;;;;;;;0.25;0.15;;;18.60;57.20;20.70;93988.00;;;;10545335;27;45146;-59
2022/09/12 00:17:01;;;;;;;0.28;0.20;;;18.60;57.20;20.70;93984.00;;;;10556573;27;45269;-58
2022/09/12 00:22:22;;;;;;;0.30;0.30;;;18.50;57.10;20.70;93982.00;;;;10545871;27;45778;-59
2022/09/12 00:27:44;;;;;;;0.30;0.28;;;18.60;57.10;20.70;93974.00;;;;10530134;27;45210;-59
2022/09/12 00:33:04;;;;;;;0.70;0.20;;;18.60;57.10;20.70;93974.00;;;;10557352;27;45136;-60
2022/09/12 00:38:25;;;;;;;0.15;0.10;;;18.50;57.00;20.70;93974.00;;;;10556310;27;45129;-59
2022/09/12 00:43:49;;;;;;;0.35;0.20;;;18.50;57.00;20.70;93967.00;;;;10557154;27;45562;-59
2022/09/12 00:49:14;;;;;;;0.40;0.20;;;18.50;57.00;20.60;93972.00;;;;10550386;27;45187;-59
2022/09/12 00:54:40;;;;;;;0.10;0.10;;;18.50;57.00;20.60;93963.00;;;;10525804;27;45234;-58
2022/09/12 01:00:15;;;;;;;0.65;0.20;;;18.50;57.00;20.60;93977.00;;;;10509893;27;45290;-58
2022/09/12 01:05:43;;;;;;;0.10;0.10;;;18.50;57.00;20.60;93967.00;;;;10510387;27;45160;-57
2022/09/12 01:11:04;;;;;;;0.40;0.10;;;18.50;56.90;20.60;93961.00;;;;10513789;27;45190;-60
2022/09/12 01:16:26;;;;;;;0.13;0.13;;;18.50;57.00;20.60;93953.00;;;;10543680;27;45429;-58
2022/09/12 01:21:59;;;;;;;0.20;0.20;;;18.50;56.90;20.60;93948.00;;;;10555005;27;45142;-58
2022/09/12 01:27:46;;;;;;;0.20;0.20;;;18.50;56.90;20.60;93943.00;;;;10524077;27;45390;-59
2022/09/12 01:33:47;;;;;;;0.38;0.30;;;18.50;56.90;20.60;93947.00;;;;10553432;27;45253;-59
2022/09/12 01:39:24;;;;;;;0.28;0.15;;;18.50;56.90;20.60;93936.00;;;;10472386;27;45227;-58
2022/09/12 01:44:51;;;;;;;0.57;0.30;;;18.50;56.70;20.60;93931.00;;;;10554476;27;45162;-59
2022/09/12 01:50:16;;;;;;;;;;;18.50;56.70;20.60;93915.00;;;;10534175;27;45233;-58
2022/09/12 01:55:42;;;;;;;0.52;0.20;;;18.50;56.70;20.60;93926.00;;;;10514717;27;45219;-59
2022/09/12 02:01:09;;;;;;;0.10;0.10;;;18.50;56.70;20.60;93928.00;;;;10511745;27;45198;-60
2022/09/12 02:06:37;;;;;;;0.20;0.20;;;18.40;56.80;20.60;93914.00;;;;10511976;27;45498;-59
2022/09/12 02:12:00;;;;;;;0.28;0.13;;;18.50;56.70;20.60;93922.00;;;;10511386;27;45151;-58
2022/09/12 02:17:23;;;;;;;0.40;0.20;;;18.50;56.70;20.60;93922.00;;;;10511740;27;45203;-59
2022/09/12 02:22:48;;;;;;;0.17;0.10;;;18.50;56.70;20.60;93922.00;;;;10511383;27;45148;-59
2022/09/12 02:28:12;;;;;;;0.22;0.20;;;18.50;56.70;20.60;93907.00;;;;10530039;27;45448;-59
2022/09/12 02:33:40;;;;;;;0.40;0.30;;;18.40;56.60;20.60;93894.00;;;;10547633;27;45579;-59
2022/09/12 02:39:02;;;;;;;0.30;0.20;;;18.40;56.60;20.60;93899.00;;;;10514414;27;45262;-60
2022/09/12 02:44:24;;;;;;;0.30;0.30;;;18.40;56.50;20.50;93904.00;;;;10518169;27;45207;-59
2022/09/12 02:49:45;;;;;;;0.20;0.20;;;18.40;56.50;20.60;93894.00;;;;10516685;27;45243;-60
2022/09/12 02:55:11;;;;;;;0.30;0.30;;;18.40;56.50;20.60;93904.00;;;;10539100;27;45226;-58
2022/09/12 03:00:39;;;;;;;0.57;0.20;;;18.40;56.50;20.50;93896.00;;;;10517541;27;45257;-58
2022/09/12 03:06:03;;;;;;;0.20;0.20;;;18.40;56.50;20.50;93890.00;;;;10517287;27;45204;-58
2022/09/12 03:11:43;;;;;;;0.10;0.10;;;18.40;56.40;20.60;93895.00;;;;10517151;27;45255;-59
2022/09/12 03:17:14;;;;;;;0.13;0.13;;;18.40;56.50;20.60;93900.00;;;;10517218;27;45972;-60
2022/09/12 03:22:46;;;;;;;0.28;0.20;;;18.40;56.40;20.50;93893.00;;;;10516899;27;45212;-58
2022/09/12 03:28:11;;;;;;;0.20;0.20;;;18.40;56.40;20.50;93886.00;;;;10519858;27;45163;-59
2022/09/12 03:33:32;;;;;;;0.30;0.20;;;18.40;56.30;20.50;93894.00;;;;10516447;27;45703;-58
2022/09/12 03:38:52;;;;;;;0.30;0.10;;;18.40;56.30;20.50;93896.00;;;;10516760;27;45876;-60
2022/09/12 03:44:14;;;;;;;0.25;0.22;;;18.40;56.30;20.50;93894.00;;;;10516406;27;45901;-59
2022/09/12 03:49:35;;;;;;;0.38;0.30;;;18.40;56.30;20.50;93891.00;;;;10515582;27;45692;-59
2022/09/12 03:54:55;;;;;;;0.10;0.10;;;18.40;56.30;20.50;93884.00;;;;10528370;27;45746;-60
2022/09/12 04:00:17;;;;;;;0.10;0.10;;;18.40;56.30;20.50;93878.00;;;;10516047;27;45331;-61
2022/09/12 04:05:37;;;;;;;0.28;0.20;;;18.40;56.30;20.50;93891.00;;;;10515139;27;45179;-59
2022/09/12 04:11:03;;;;;;;0.10;0.10;;;18.40;56.30;20.50;93891.00;;;;10515875;27;45176;-57
2022/09/12 04:16:25;;;;;;;0.10;0.10;;;18.40;56.20;20.50;93892.00;;;;10543780;27;45154;-59
2022/09/12 04:21:46;;;;;;;0.38;0.20;;;18.40;56.20;20.50;93886.00;;;;10556503;27;45293;-60
2022/09/12 04:27:07;;;;;;;0.30;0.20;;;18.40;56.20;20.50;93880.00;;;;10522412;27;45167;-58
2022/09/12 04:32:29;;;;;;;0.10;0.10;;;18.40;56.20;20.50;93879.00;;;;10515145;27;45175;-57
2022/09/12 04:37:50;;;;;;;0.20;0.20;;;18.40;56.10;20.50;93889.00;;;;10513907;27;45388;-57
2022/09/12 04:43:10;;;;;;;0.52;0.22;;;18.40;56.10;20.50;93890.00;;;;10514430;27;45251;-59
2022/09/12 04:48:32;;;;;;;0.73;0.30;;;18.40;56.10;20.50;93887.00;;;;10513722;27;45728;-58
2022/09/12 04:53:56;;;;;;;0.20;0.10;;;18.40;56.10;20.50;93872.00;;;;10526767;27;45254;-59
2022/09/12 04:59:19;;;;;;;0.40;0.17;;;18.30;56.10;20.50;93872.00;;;;10531528;27;45866;-60
2022/09/12 05:04:41;;;;;;;0.15;0.10;;;18.30;56.10;20.50;93888.00;;;;10513681;27;45182;-58
2022/09/12 05:10:03;;;;;;;0.20;0.10;;;18.30;56.00;20.50;93879.00;;;;10513929;27;45256;-59
2022/09/12 05:15:24;;;;;;;0.43;0.10;;;18.40;56.10;20.50;93875.00;;;;10512976;27;46124;-58
2022/09/12 05:20:46;;;;;;;0.20;0.20;;;18.30;55.90;20.50;93882.00;;;;10513335;27;45224;-58
2022/09/12 05:26:08;;;;;;;0.22;0.22;;;18.40;56.00;20.40;93884.00;;;;10514595;27;45262;-58
2022/09/12 05:31:28;;;;;;;0.20;0.10;;;18.30;55.90;20.40;93892.00;;;;10521389;27;45454;-59
2022/09/12 05:36:50;;;;;;;0.20;0.20;;;18.30;55.90;20.40;93903.00;;;;10511808;27;45333;-57
2022/09/12 05:42:11;;;;;;;0.25;0.17;;;18.30;55.80;20.40;93904.00;;;;10512852;27;45241;-58
2022/09/12 05:47:31;;;;;;;1.38;0.15;;;18.30;55.20;20.40;93899.00;;;;10511738;27;45897;-57
2022/09/12 05:52:53;;;;;;;0.75;0.30;;;18.30;54.80;20.40;93901.00;;;;10512700;27;45272;-58
2022/09/12 05:58:15;;;;;;;0.10;0.10;;;18.30;54.40;20.40;93921.00;;;;10536546;27;45182;-59
2022/09/12 06:03:37;;;;;;;0.60;0.20;;;18.30;55.50;20.40;93914.00;;;;10513958;27;45135;-59
2022/09/12 06:09:01;;;;;;;0.40;0.22;;;18.30;55.20;20.40;93925.00;;;;10511332;27;45175;-59
2022/09/12 06:14:22;;;;;;;2.20;0.28;;;18.30;55.30;20.40;93938.00;;;;10519817;27;45700;-59
2022/09/12 06:19:42;;;;;;;0.50;0.20;;;18.30;55.10;20.40;93937.00;;;;10510471;28;45352;-59
2022/09/12 06:25:05;;;;;;;0.63;0.25;;;18.30;55.20;20.40;93943.00;;;;10511804;28;45512;-59
2022/09/12 06:30:26;;;;;;;0.52;0.30;;;18.30;55.20;20.40;93937.00;;;;10524557;27;45225;-59
2022/09/12 06:35:47;;;;;;;0.50;0.30;;;18.30;55.20;20.40;93929.00;;;;10510798;27;45142;-60
2022/09/12 06:41:11;;;;;;;1.40;0.30;;;18.30;55.20;20.40;93912.00;;;;10511040;27;45418;-58
2022/09/12 06:46:32;;;;;;;2.58;0.40;;;18.30;55.30;20.40;93929.00;;;;10510835;27;45378;-59
2022/09/12 06:51:53;;;;;;;0.30;0.20;;;18.30;55.30;20.40;93926.00;;;;10509413;27;45318;-57
2022/09/12 06:57:15;;;;;;;1.98;0.30;;;18.30;55.20;20.40;93928.00;;;;10525259;27;45283;-58
2022/09/12 07:02:35;;;;;;;3.70;0.40;;;18.30;55.20;20.40;93923.00;;;;10510283;27;45174;-59
2022/09/12 07:07:56;;;;;;;0.40;0.35;;;18.30;55.20;20.40;93944.00;;;;10510007;27;45267;-57
2022/09/12 07:13:18;;;;;;;1.02;0.30;;;18.30;55.10;20.40;93924.00;;;;10509880;27;45754;-59
2022/09/12 07:18:40;;;;;;;0.70;0.30;;;18.30;55.20;20.40;93923.00;;;;10509760;27;45193;-60
2022/09/12 07:24:01;;;;;;;1.15;0.35;;;18.30;55.10;20.40;93915.00;;;;10512341;27;45606;-57
2022/09/12 07:29:23;;;;;;;0.95;0.38;;;18.30;55.00;20.40;93924.00;;;;10546548;27;45843;-58
2022/09/12 07:34:45;;;;;;;0.73;0.40;;;18.30;55.10;20.40;93923.00;;;;10543205;27;45236;-57
2022/09/12 07:40:07;;;;;;;1.63;0.50;;;18.30;55.20;20.40;93910.00;;;;10516264;27;45889;-59
2022/09/12 07:45:29;;;;;;;1.00;0.50;;;18.30;55.20;20.40;93929.00;;;;10545164;27;45201;-57
2022/09/12 07:50:58;;;;;;;0.85;0.55;;;18.30;55.20;20.40;93923.00;;;;10559420;27;45270;-57
2022/09/12 07:56:21;;;;;;;1.15;0.50;;;18.30;55.20;20.40;93915.00;;;;10554908;27;45457;-58
2022/09/12 08:01:42;;;;;;;0.98;0.30;;;18.30;55.20;20.40;93904.00;;;;10516033;27;45259;-59
2022/09/12 08:07:03;;;;;;;0.88;0.50;;;18.20;55.30;20.40;93921.00;;;;10515610;28;45812;-58
2022/09/12 08:12:23;;;;;;;0.65;0.50;;;18.30;55.30;20.40;93911.00;;;;10515455;27;45238;-58
2022/09/12 08:17:45;;;;;;;1.52;0.40;;;18.30;55.40;20.40;93922.00;;;;10515428;27;45733;-59
2022/09/12 08:23:06;;;;;;;0.50;0.20;;;18.30;55.30;20.40;93924.00;;;;10515418;27;45193;-60
2022/09/12 08:28:27;;;;;;;0.68;0.30;;;18.30;55.40;20.40;93927.00;;;;10535628;27;45175;-58
2022/09/12 08:33:49;;;;;;;0.60;0.40;;;18.30;55.50;20.40;93933.00;;;;10549609;27;45163;-59
2022/09/12 08:39:14;;;;;;;0.95;0.40;;;18.30;55.60;20.40;93937.00;;;;10514491;27;45280;-58
2022/09/12 08:45:04;;;;;;;0.40;0.25;;;18.30;55.80;20.40;93948.00;;;;10514917;28;45135;-59
2022/09/12 08:50:26;;;;;;;2.35;0.40;;;18.30;55.80;20.40;93940.00;;;;10538550;27;45304;-58
2022/09/12 08:55:53;;;;;;;0.50;0.40;;;18.30;56.00;20.40;93941.00;;;;10548558;27;45053;-58
2022/09/12 09:01:24;;;;;;;0.43;0.35;;;18.30;56.10;20.40;93941.00;;;;10517743;27;45894;-57
2022/09/12 09:07:02;;;;;;;0.82;0.40;;;18.30;56.10;20.40;93935.00;;;;10527268;27;45224;-58
2022/09/12 09:12:31;;;;;;;0.82;0.55;;;18.30;56.20;20.40;93934.00;;;;10513523;27;45861;-58
2022/09/12 09:17:56;;;;;;;0.50;0.40;;;18.30;56.30;20.40;93935.00;;;;10541479;27;45809;-58
2022/09/12 09:23:25;;;;;;;0.98;0.38;;;18.30;56.30;20.40;93921.00;;;;10541601;27;45931;-58
2022/09/12 09:28:51;;;;;;;1.20;0.43;;;18.30;56.40;20.40;93919.00;;;;10536626;27;45497;-58
2022/09/12 09:34:18;;;;;;;0.95;0.40;;;18.30;56.40;20.40;93923.00;;;;10545636;27;45255;-58
2022/09/12 09:39:54;;;;;;;0.73;0.40;;;18.30;56.40;20.50;93921.00;;;;10511346;27;45854;-58
2022/09/12 09:45:19;;;;;;;;;;;18.30;56.40;20.40;93908.00;;;;10506732;27;47348;-58
2022/09/12 09:50:40;;;;;;;1.23;0.50;;;18.30;56.50;20.50;93923.00;;;;10543679;27;45211;-59
2022/09/12 09:56:10;;;;;;;0.68;0.32;;;18.30;56.60;20.40;93901.00;;;;10553401;27;46053;-58
2022/09/12 10:01:31;;;;;;;0.50;0.40;;;18.40;57.40;20.50;93930.00;;;;10554221;27;45909;-59
2022/09/12 10:06:53;;;;;;;1.00;0.50;;;18.40;56.80;20.50;93925.00;;;;10554422;27;45569;-58
2022/09/12 10:12:28;;;;;;;1.23;0.43;;;18.40;56.90;20.50;93927.00;;;;10554094;27;45214;-56
2022/09/12 10:17:50;;;;;;;1.45;0.60;;;18.40;57.00;20.50;93926.00;;;;10553188;27;45301;-57
2022/09/12 10:23:30;;;;;;;0.63;0.45;;;18.40;57.10;20.50;93919.00;;;;10541408;27;45263;-59
2022/09/12 10:28:55;;;;;;;2.35;0.80;;;18.40;57.10;20.50;93912.00;;;;10536304;27;45866;-59
2022/09/12 10:34:26;;;;;;;1.10;0.60;;;18.40;57.10;20.50;93911.00;;;;10550740;27;45237;-58
2022/09/12 10:39:55;;;;;;;2.97;0.90;;;18.40;57.00;20.60;93919.00;;;;10517878;27;45249;-58
2022/09/12 10:45:28;;;;;;;3.92;0.88;;;18.50;57.00;20.60;93901.00;;;;10518068;27;45235;-59
2022/09/12 10:50:49;;;;;;;3.60;1.02;;;18.50;57.00;20.60;93919.00;;;;10523830;27;45443;-59
2022/09/12 10:56:13;;;;;;;3.38;0.90;;;18.50;57.00;20.60;93899.00;;;;10509851;28;45398;-58
2022/09/12 11:01:41;;;;;;;4.40;1.35;;;18.50;57.00;20.60;93905.00;;;;10517252;28;45250;-58
2022/09/12 11:07:27;;;;;;;2.20;0.82;;;18.50;56.90;20.60;93902.00;;;;10516924;27;45783;-58
2022/09/12 11:12:59;;;;;;;3.20;1.00;;;18.50;56.90;20.60;93905.00;;;;10551672;27;45165;-56
2022/09/12 11:18:53;;;;;;;3.15;1.08;;;18.50;56.70;20.60;93890.00;;;;10559377;27;45127;-60
2022/09/12 11:24:32;;;;;;;2.45;0.98;;;18.50;56.70;20.60;93894.00;;;;10559194;27;45679;-58
2022/09/12 11:30:02;;;;;;;2.28;0.80;;;18.50;56.70;20.70;93894.00;;;;10558687;27;45265;-57
2022/09/12 11:35:28;;;;;;;2.17;0.80;;;18.60;56.80;20.70;93888.00;;;;10555261;27;45233;-58
2022/09/12 11:40:54;;;;;;;1.40;0.80;;;18.60;56.70;20.70;93888.00;;;;10534004;27;45174;-58
2022/09/12 11:46:20;;;;;;;1.90;0.70;;;18.60;56.70;20.70;93860.00;;;;10535085;27;45269;-59
2022/09/12 11:51:49;;;;;;;1.83;0.87;;;18.60;56.70;20.70;93872.00;;;;10516245;27;45715;-60
2022/09/12 11:57:17;;;;;;;4.78;0.70;;;18.60;56.70;20.70;93875.00;;;;10515858;27;45242;-57
2022/09/12 12:02:48;;;;;;;1.77;0.63;;;18.60;56.70;20.70;93876.00;;;;10516721;27;45695;-58
2022/09/12 12:08:13;;;;;;;2.58;0.80;;;18.60;56.60;20.70;93854.00;;;;10543719;27;45277;-58
2022/09/12 12:13:38;;;;;;;1.17;0.68;;;18.60;56.60;20.80;93865.00;;;;10522310;27;45259;-57
2022/09/12 12:19:01;;;;;;;1.80;0.60;;;18.70;56.60;20.80;93856.00;;;;10510954;27;45143;-58
2022/09/12 12:24:27;;;;;;;2.05;0.60;;;18.70;56.50;20.80;93860.00;;;;10512256;27;45217;-58
2022/09/12 12:29:48;;;;;;;1.95;0.70;;;18.80;56.50;20.90;93862.00;;;;10547809;27;45337;-58
2022/09/12 12:35:42;;;;;;;0.40;0.40;;;18.80;56.40;20.90;93850.00;;;;10544463;27;45817;-58
2022/09/12 12:41:46;;;;;;;2.03;0.60;;;18.80;56.50;20.90;93853.00;;;;10514736;28;45131;-58
2022/09/12 12:47:18;;;;;;;0.60;0.40;;;18.80;56.40;20.90;93828.00;;;;10527785;27;45259;-57
2022/09/12 12:52:48;;;;;;;2.47;0.60;;;18.90;56.40;21.00;93827.00;;;;10513969;27;45194;-58
2022/09/12 12:58:29;;;;;;;1.42;0.60;;;18.90;56.40;21.00;93831.00;;;;10509714;27;45228;-62
2022/09/12 13:03:56;;;;;;;1.10;0.35;;;18.90;56.40;21.00;93827.00;;;;10513647;27;45892;-58
2022/09/12 13:09:23;;;;;;;3.67;0.80;;;18.90;56.40;21.00;93822.00;;;;10512598;27;45773;-60
2022/09/12 13:14:53;;;;;;;;;;;18.90;56.50;21.00;93824.00;;;;10527377;27;45296;-57
2022/09/12 13:20:21;;;;;;;2.40;0.63;;;18.90;56.60;21.00;93798.00;;;;10511604;27;45203;-57
2022/09/12 13:25:52;;;;;;;2.85;0.65;;;19.00;56.60;21.00;93818.00;;;;10511721;27;45494;-58
2022/09/12 13:31:22;;;;;;;2.63;0.70;;;18.90;56.60;21.10;93822.00;;;;10512674;28;45356;-57
2022/09/12 13:37:13;;;;;;;1.85;0.52;;;18.90;56.60;21.10;93806.00;;;;10527783;27;45242;-59
2022/09/12 13:42:41;;;;;;;2.42;0.73;;;19.00;56.70;21.10;93809.00;;;;10513156;27;45158;-58
2022/09/12 13:48:05;;;;;;;1.48;0.60;;;19.00;56.60;21.10;93803.00;;;;10512152;28;45762;-58
2022/09/12 13:53:29;;;;;;;1.10;0.57;;;19.00;56.70;21.10;93805.00;;;;10512871;27;45233;-58
2022/09/12 13:58:56;;;;;;;1.23;0.60;;;19.00;56.60;21.10;93799.00;;;;10511693;27;45778;-58
2022/09/12 14:10:00;;;;;;;1.20;0.60;;;19.00;56.60;21.10;93786.00;;;;10541509;27;45177;-58
2022/09/12 14:15:26;;;;;;;1.95;0.50;;;19.00;56.50;21.10;93781.00;;;;10554076;27;45199;-58
2022/09/12 14:20:48;;;;;;;2.38;0.63;;;19.00;56.50;21.10;93779.00;;;;10553486;27;45428;-58
2022/09/12 14:26:12;;;;;;;3.30;1.00;;;19.00;56.50;21.20;93766.00;;;;10551828;27;45227;-58
2022/09/12 14:31:36;;;;;;;1.33;0.40;;;19.00;56.50;21.10;93767.00;;;;10549014;27;45144;-58
2022/09/12 14:36:58;;;;;;;1.05;0.60;;;19.00;56.50;21.20;93768.00;;;;10551313;27;45305;-59
2022/09/12 14:42:22;;;;;;;1.73;0.70;;;19.10;56.40;21.10;93772.00;;;;10554598;27;45196;-60
2022/09/12 14:47:49;;;;;;;2.92;0.45;;;19.10;56.50;21.20;93757.00;;;;10560178;27;45193;-60
2022/09/12 14:53:25;;;;;;;1.25;0.38;;;19.10;56.20;21.30;93765.00;;;;10527714;27;45160;-59
2022/09/12 14:58:46;;;;;;;1.30;0.40;;;19.20;56.20;21.30;93757.00;;;;10555704;27;45293;-59
2022/09/12 15:04:06;;;;;;;2.22;0.60;;;19.20;55.90;21.30;93751.00;;;;10566514;27;45687;-58
2022/09/12 15:09:28;;;;;;;1.15;0.40;;;19.20;56.20;21.30;93746.00;;;;10565596;27;45424;-60
2022/09/12 15:14:49;;;;;;;0.70;0.45;;;19.20;56.40;21.40;93750.00;;;;10548947;27;45381;-59
2022/09/12 15:20:10;;;;;;;2.40;0.40;;;19.30;56.20;21.40;93745.00;;;;10549925;27;45256;-60
2022/09/12 15:25:32;;;;;;;1.60;0.52;;;19.30;56.00;21.40;93750.00;;;;10566112;27;45157;-60
2022/09/12 15:30:55;;;;;;;3.85;0.60;;;19.30;56.10;21.40;93750.00;;;;10541220;27;45202;-59
2022/09/12 15:36:19;;;;;;;3.53;0.40;;;19.30;55.90;21.50;93743.00;;;;10541182;27;45320;-60
2022/09/12 15:41:41;;;;;;;2.90;0.55;;;19.40;55.90;21.50;93736.00;;;;10527209;27;45375;-60
2022/09/12 15:47:02;;;;;;;3.38;0.60;;;19.40;55.90;21.50;93743.00;;;;10527734;27;45712;-59
2022/09/12 15:52:23;;;;;;;4.68;0.80;;;19.40;55.90;21.50;93734.00;;;;10512016;27;45357;-59
2022/09/12 15:57:45;;;;;;;0.85;0.50;;;19.40;56.10;21.50;93737.00;;;;10512724;27;45143;-57
2022/09/12 16:03:07;;;;;;;1.52;0.45;;;19.40;56.30;21.50;93736.00;;;;10515534;27;45242;-60
2022/09/12 16:08:30;;;;;;;1.75;0.65;;;19.40;56.20;21.60;93736.00;;;;10545840;27;45380;-60
2022/09/12 16:13:55;;;;;;;2.95;0.50;;;19.50;56.10;21.60;93742.00;;;;10537050;27;45192;-60
2022/09/12 16:19:15;;;;;;;3.03;0.60;;;19.50;56.10;21.60;93732.00;;;;10536497;27;45508;-60
2022/09/12 16:24:38;;;;;;;1.10;0.40;;;19.50;56.10;21.70;93738.00;;;;10517366;27;45275;-61
2022/09/12 16:29:59;;;;;;;2.05;0.35;;;19.50;56.10;21.70;93717.00;;;;10549658;27;45191;-60
2022/09/12 16:35:20;;;;;;;3.33;0.45;;;19.50;56.50;21.60;93719.00;;;;10547903;27;45218;-60
2022/09/12 16:40:40;;;;;;;1.08;0.32;;;19.50;55.90;21.60;93716.00;;;;10514133;27;45133;-60
2022/09/12 16:46:05;;;;;;;0.80;0.40;;;19.50;55.90;21.50;93716.00;;;;10513543;27;45826;-61
2022/09/12 16:51:29;;;;;;;1.65;0.50;;;19.50;56.10;21.50;93718.00;;;;10514790;27;45897;-62
2022/09/12 16:56:49;;;;;;;2.80;0.60;;;19.40;56.20;21.50;93714.00;;;;10524648;27;45028;-60
2022/09/12 17:02:13;;;;;;;3.30;0.73;;;19.40;56.40;21.40;93712.00;;;;10526704;27;45688;-60
2022/09/12 17:07:34;;;;;;;1.20;0.40;;;19.30;56.40;21.40;93715.00;;;;10513441;27;45234;-62
2022/09/12 17:12:54;;;;;;;1.63;0.35;;;19.30;56.50;21.40;93720.00;;;;10513522;27;45176;-60
2022/09/12 17:18:16;;;;;;;0.63;0.50;;;19.30;56.50;21.40;93726.00;;;;10510029;27;45310;-60
2022/09/12 17:23:37;;;;;;;1.27;0.45;;;19.20;56.50;21.40;93720.00;;;;10534285;27;45250;-60
2022/09/12 17:28:57;;;;;;;1.02;0.40;;;19.20;56.60;21.40;93723.00;;;;10525900;27;45812;-60
2022/09/12 17:34:19;;;;;;;0.90;0.30;;;19.20;56.60;21.30;93721.00;;;;10522178;27;45735;-62
2022/09/12 17:39:40;;;;;;;2.42;0.60;;;19.20;56.60;21.30;93717.00;;;;10527562;27;46153;-61
2022/09/12 17:45:00;;;;;;;1.77;0.30;;;19.10;56.60;21.30;93723.00;;;;10532946;27;45720;-62
2022/09/12 17:50:22;;;;;;;2.88;0.50;;;19.10;56.70;21.30;93724.00;;;;10527225;27;45186;-60
2022/09/12 17:55:43;;;;;;;0.40;0.20;;;19.10;56.70;21.30;93715.00;;;;10510118;27;45390;-60
2022/09/12 18:06:48;;;;;;;1.48;0.50;;;19.10;56.80;21.20;93714.00;;;;10513089;27;45785;-60
2022/09/12 18:12:09;;;;;;;2.00;0.22;;;19.10;56.80;21.20;93732.00;;;;10538309;27;45893;-60
2022/09/12 18:17:30;;;;;;;0.85;0.50;;;19.10;56.90;21.20;93740.00;;;;10523106;27;45679;-60
2022/09/12 18:22:51;;;;;;;0.55;0.30;;;18.90;56.80;21.20;93738.00;;;;10525711;27;45891;-61
2022/09/12 18:28:12;;;;;;;1.58;0.47;;;19.00;56.90;21.20;93739.00;;;;10530040;27;45415;-60
2022/09/12 18:33:34;;;;;;;0.85;0.40;;;19.00;56.90;21.20;93746.00;;;;10547863;27;45693;-61
2022/09/12 18:38:57;;;;;;;0.80;0.30;;;19.00;56.90;21.10;93741.00;;;;10509966;27;45218;-61
2022/09/12 18:44:18;;;;;;;0.60;0.30;;;19.00;56.90;21.10;93745.00;;;;10525194;27;45193;-61
2022/09/12 18:49:38;;;;;;;0.50;0.25;;;19.00;56.90;21.10;93743.00;;;;10511127;27;45404;-60
2022/09/12 18:55:00;;;;;;;1.45;0.30;;;19.00;56.90;21.10;93744.00;;;;10510453;27;45780;-60
2022/09/12 19:00:21;;;;;;;0.60;0.30;;;19.00;56.90;21.10;93749.00;;;;10540080;27;45905;-60
2022/09/12 19:05:42;;;;;;;1.27;0.50;;;18.90;56.90;21.10;93748.00;;;;10552257;27;45853;-61
2022/09/12 19:11:04;;;;;;;1.25;0.43;;;19.00;57.00;21.10;93738.00;;;;10538786;27;45535;-62
2022/09/12 19:16:28;;;;;;;1.27;0.50;;;18.90;57.00;21.10;93744.00;;;;10523285;27;45221;-62
2022/09/12 19:21:48;;;;;;;1.48;0.50;;;18.90;56.90;21.10;93740.00;;;;10528669;27;45391;-60
2022/09/12 19:27:12;;;;;;;2.25;0.30;;;18.90;56.90;21.10;93735.00;;;;10541695;27;45233;-60
2022/09/12 19:32:33;;;;;;;2.53;0.98;;;18.90;56.90;21.00;93722.00;;;;10559976;27;45105;-60
2022/09/12 19:37:53;;;;;;;1.15;0.50;;;18.90;56.90;21.10;93732.00;;;;10516828;27;45427;-61
2022/09/12 19:43:15;;;;;;;1.08;0.43;;;18.90;57.00;21.00;93730.00;;;;10516940;27;45423;-61
2022/09/12 19:48:36;;;;;;;1.40;0.50;;;18.90;56.90;21.00;93729.00;;;;10516797;27;45840;-60
2022/09/12 19:53:56;;;;;;;1.65;0.50;;;18.90;57.00;21.00;93732.00;;;;10553656;27;45216;-60
2022/09/12 19:59:18;;;;;;;1.33;0.50;;;18.90;57.00;21.00;93736.00;;;;10514549;27;45195;-62
2022/09/12 20:04:39;;;;;;;1.85;0.52;;;18.90;57.00;21.00;93728.00;;;;10515268;27;45182;-61
2022/09/12 20:09:59;;;;;;;1.23;0.50;;;18.80;57.00;21.00;93739.00;;;;10546611;27;45320;-60
2022/09/12 20:15:21;;;;;;;1.42;0.50;;;18.90;57.00;21.00;93736.00;;;;10552284;27;45767;-60
2022/09/12 20:20:42;;;;;;;1.38;0.60;;;18.80;56.90;21.00;93740.00;;;;10532687;27;45278;-61
2022/09/12 20:26:03;;;;;;;0.80;0.50;;;18.90;57.00;21.00;93738.00;;;;10535574;27;45350;-60
2022/09/12 20:31:25;;;;;;;1.52;0.55;;;18.80;56.90;21.00;93738.00;;;;10540342;27;45172;-61
2022/09/12 20:36:46;;;;;;;1.83;0.63;;;18.80;56.90;21.00;93734.00;;;;10538822;27;45100;-62
2022/09/12 20:42:07;;;;;;;0.77;0.32;;;18.80;56.90;20.90;93734.00;;;;10549088;27;45778;-60
2022/09/12 20:47:29;;;;;;;1.42;0.70;;;18.80;56.90;20.90;93720.00;;;;10516053;27;45450;-60
2022/09/12 20:52:49;;;;;;;1.42;0.63;;;18.80;56.90;21.00;93727.00;;;;10514248;27;45210;-60
2022/09/12 20:58:10;;;;;;;1.98;0.57;;;18.80;56.90;20.90;93717.00;;;;10512943;27;45776;-62
2022/09/12 21:03:32;;;;;;;1.27;0.50;;;18.80;56.90;20.90;93714.00;;;;10514536;27;45319;-61
2022/09/12 21:08:53;;;;;;;1.85;0.55;;;18.80;56.90;20.90;93721.00;;;;10534276;27;45451;-62
2022/09/12 21:14:14;;;;;;;1.30;0.57;;;18.80;56.90;20.90;93712.00;;;;10542973;27;45755;-60
2022/09/12 21:19:36;;;;;;;1.35;0.63;;;18.80;56.90;20.90;93712.00;;;;10525964;27;45229;-60
2022/09/12 21:24:56;;;;;;;1.65;0.60;;;18.80;56.90;20.90;93712.00;;;;10513377;27;45125;-60
2022/09/12 21:30:17;;;;;;;1.40;0.40;;;18.70;56.80;20.90;93708.00;;;;10526339;27;45744;-61
2022/09/12 21:35:39;;;;;;;0.77;0.50;;;18.70;56.90;20.90;93696.00;;;;10513028;27;45393;-60
2022/09/12 21:41:05;;;;;;;0.30;0.20;;;18.70;56.80;20.90;93713.00;;;;10517524;27;45770;-59
2022/09/12 21:46:25;;;;;;;1.33;0.47;;;18.70;56.80;20.90;93704.00;;;;10541114;27;45897;-62
2022/09/12 21:51:47;;;;;;;0.88;0.50;;;18.70;56.80;20.90;93700.00;;;;10544416;27;45413;-61
2022/09/12 21:57:08;;;;;;;1.40;0.38;;;18.70;56.90;20.80;93697.00;;;;10529513;27;45342;-61
2022/09/12 22:02:28;;;;;;;1.52;0.50;;;18.70;56.80;20.80;93695.00;;;;10544190;27;45412;-62
2022/09/12 22:07:51;;;;;;;1.02;0.40;;;18.70;56.80;20.90;93704.00;;;;10511826;27;45261;-60
2022/09/12 22:13:11;;;;;;;1.10;0.40;;;18.70;56.80;20.80;93707.00;;;;10536328;27;45390;-60
2022/09/12 22:18:33;;;;;;;0.85;0.50;;;18.70;56.80;20.80;93702.00;;;;10559784;27;45349;-62
2022/09/12 22:29:36;;;;;;;1.60;0.60;;;18.70;56.80;20.80;93695.00;;;;10535320;27;45789;-60
2022/09/12 22:34:57;;;;;;;0.80;0.40;;;18.70;56.80;20.80;93694.00;;;;10523254;27;45194;-61
2022/09/12 22:40:19;;;;;;;0.68;0.40;;;18.70;56.90;20.80;93686.00;;;;10511494;27;45151;-62
2022/09/12 22:45:41;;;;;;;0.68;0.40;;;18.70;56.80;20.80;93664.00;;;;10516881;27;45438;-62
2022/09/12 22:51:02;;;;;;;1.15;0.38;;;18.60;56.80;20.80;93683.00;;;;10521629;27;45464;-60
2022/09/12 22:56:24;;;;;;;0.63;0.30;;;18.70;56.80;20.80;93677.00;;;;10516123;27;45424;-61
2022/09/12 23:01:44;;;;;;;1.60;0.38;;;18.60;56.80;20.80;93680.00;;;;10548050;27;45137;-60
2022/09/12 23:07:05;;;;;;;2.97;0.52;;;18.60;56.80;20.80;93670.00;;;;10559744;27;45164;-60
2022/09/12 23:12:27;;;;;;;1.00;0.40;;;18.70;56.80;20.80;93671.00;;;;10560475;27;45191;-60
2022/09/12 23:17:48;;;;;;;0.65;0.43;;;18.70;56.80;20.80;93685.00;;;;10551880;27;45853;-60
2022/09/12 23:23:08;;;;;;;0.70;0.50;;;18.70;56.80;20.80;93667.00;;;;10531721;27;45518;-60
2022/09/12 23:28:30;;;;;;;0.88;0.50;;;18.70;56.80;20.80;93672.00;;;;10538295;27;45255;-61
2022/09/12 23:33:53;;;;;;;0.73;0.22;;;18.60;56.80;20.80;93654.00;;;;10551455;27;45266;-61
2022/09/12 23:39:14;;;;;;;0.35;0.30;;;18.60;56.80;20.80;93658.00;;;;10520295;27;45244;-60
2022/09/12 23:44:35;;;;;;;0.63;0.38;;;18.60;56.80;20.80;93649.00;;;;10523838;27;45735;-62
2022/09/12 23:49:56;;;;;;;0.55;0.30;;;18.60;56.80;20.80;93646.00;;;;10536486;27;45165;-60
2022/09/12 23:55:16;;;;;;;0.40;0.30;;;18.60;56.80;20.70;93630.00;;;;10536431;27;45182;-60
